KRBL/RBL METAR and TAF weather

Enter ICAO airport designator
Station Type Date Time Source
KRBL METAR 2019/10/21 04:54 UTC NOAA

KRBL 210454Z AUTO 33005KT 10SM CLR 16/04 A3012 RMK AO2 SLP199 T01560039


Station Type Date Time Source
KRBL Decoded METAR 2019/10/21 04:54 UTC NOAA

RED BLUFF MUNICIPAL AIRPORT, CA, United States (KRBL) 40-09N 122-15W 104M
Oct 21, 2019 - 12:54 AM EDT / 2019.10.21 0454 UTC
Wind: from the NNW (330 degrees) at 6 MPH (5 KT):0
Visibility: 10 mile(s):0
Sky conditions: clear
Temperature: 60.1 F (15.6 C)
Dew Point: 39.0 F (3.9 C)
Relative Humidity: 45%
Pressure (altimeter): 30.12 in. Hg (1019 hPa)
ob: KRBL 210454Z AUTO 33005KT 10SM CLR 16/04 A3012 RMK AO2 SLP199 T01560039
cycle: 5

Station Type Date Time Source
KRBL TAF 2019/10/20 18:33 UTC NOAA

TAF KRBL 201731Z 2018/2118 33006KT P6SM SCT250

Example: see airport list